createdAt,value
2019-04-11T00:01:38.736Z,16.30
2019-04-11T00:03:59.668Z,16.20
2019-04-11T00:06:29.640Z,18.10
2019-04-11T00:08:58.645Z,17.40
2019-04-11T00:11:28.071Z,17.43
2019-04-11T00:13:57.787Z,17.40
2019-04-11T00:16:27.032Z,17.73
2019-04-11T00:18:56.838Z,18.23
2019-04-11T00:21:25.873Z,18.13
2019-04-11T00:23:54.540Z,18.20
2019-04-11T00:26:22.983Z,17.67
2019-04-11T00:28:52.095Z,17.87
2019-04-11T00:31:21.028Z,18.77
2019-04-11T00:33:49.423Z,17.27
2019-04-11T00:36:18.323Z,18.03
2019-04-11T00:38:47.848Z,17.73
2019-04-11T00:41:17.513Z,18.13
2019-04-11T00:43:46.902Z,18.30
2019-04-11T00:46:16.239Z,18.43
2019-04-11T00:48:46.133Z,17.93
2019-04-11T00:51:16.126Z,18.37
2019-04-11T00:53:46.468Z,18.13
2019-04-11T00:56:15.793Z,18.57
2019-04-11T00:58:45.625Z,18.30
2019-04-11T01:01:15.565Z,18.17
2019-04-11T01:03:45.322Z,17.60
2019-04-11T01:06:16.133Z,18.33
2019-04-11T01:08:46.017Z,17.90
2019-04-11T01:11:14.377Z,17.80
2019-04-11T01:13:50.355Z,18.47
2019-04-11T01:16:32.634Z,17.33
2019-04-11T01:19:01.124Z,17.73
2019-04-11T01:21:30.651Z,18.47
2019-04-11T01:23:59.607Z,17.10
2019-04-11T01:26:28.773Z,16.63
2019-04-11T01:29:05.114Z,17.47
2019-04-11T01:31:35.893Z,16.83
2019-04-11T01:34:04.605Z,17.50
2019-04-11T01:36:33.638Z,17.00
2019-04-11T01:39:10.648Z,17.27
2019-04-11T01:41:39.512Z,17.57
2019-04-11T01:44:08.918Z,16.57
2019-04-11T01:46:38.240Z,15.60
2019-04-11T01:49:17.130Z,16.97
2019-04-11T01:51:45.663Z,16.40
2019-04-11T01:54:15.228Z,16.43
2019-04-11T01:56:44.114Z,16.23
2019-04-11T01:59:13.377Z,16.30
2019-04-11T02:02:01.534Z,15.93
2019-04-11T02:04:49.623Z,15.70
2019-04-11T02:07:18.555Z,16.57
2019-04-11T02:09:48.371Z,15.63
2019-04-11T02:12:18.420Z,16.07
2019-04-11T02:14:47.987Z,16.13
2019-04-11T02:17:16.773Z,15.73
2019-04-11T02:19:45.440Z,15.20
2019-04-11T02:22:26.546Z,15.57
2019-04-11T02:25:04.407Z,16.00
2019-04-11T02:27:34.828Z,15.47
2019-04-11T02:30:04.512Z,14.30
2019-04-11T02:32:34.517Z,14.73
2019-04-11T02:35:05.128Z,15.93
2019-04-11T02:37:34.578Z,15.63
2019-04-11T02:40:05.876Z,15.30
2019-04-11T02:42:35.812Z,16.47
2019-04-11T02:45:19.653Z,16.60
2019-04-11T02:47:37.450Z,15.70
2019-04-11T02:50:08.135Z,15.87
2019-04-11T02:52:37.759Z,15.93
2019-04-11T02:55:08.517Z,15.43
2019-04-11T02:57:38.569Z,16.17
2019-04-11T03:00:08.955Z,16.23
2019-04-11T03:02:39.399Z,15.33
2019-04-11T03:05:09.951Z,15.73
2019-04-11T03:07:42.303Z,19.53
2019-04-11T03:10:12.314Z,15.37
2019-04-11T03:12:43.679Z,15.23
2019-04-11T03:15:27.476Z,16.33
2019-04-11T03:17:44.531Z,15.17
2019-04-11T03:20:23.105Z,13.97
2019-04-11T03:22:45.314Z,14.63
2019-04-11T03:25:14.163Z,13.90
2019-04-11T03:27:43.807Z,14.10
2019-04-11T03:30:19.536Z,14.40
2019-04-11T03:38:03.806Z,13.90
2019-04-11T03:40:33.542Z,14.03
2019-04-11T03:43:04.092Z,14.83
2019-04-11T03:45:38.428Z,12.93
2019-04-11T03:48:06.193Z,13.33
2019-04-11T03:50:23.913Z,13.60
2019-04-11T03:52:51.787Z,13.70
2019-04-11T03:55:23.274Z,13.13
2019-04-11T03:57:54.231Z,12.57
2019-04-11T04:00:24.718Z,13.20
2019-04-11T04:02:55.101Z,13.67
2019-04-11T04:05:23.862Z,12.43
2019-04-11T04:07:55.274Z,13.97
2019-04-11T04:10:25.750Z,13.73
2019-04-11T04:12:55.931Z,14.23
2019-04-11T04:16:12.129Z,13.87
2019-04-11T04:18:56.562Z,13.60
2019-04-11T04:21:49.066Z,13.30
2019-04-11T04:24:34.067Z,14.27
2019-04-11T04:27:01.736Z,14.07
2019-04-11T04:29:32.053Z,14.00
2019-04-11T04:32:02.600Z,15.33
2019-04-11T04:34:36.210Z,14.93
2019-04-11T04:37:07.761Z,15.07
2019-04-11T04:39:37.679Z,14.80
2019-04-11T04:42:17.364Z,15.10
2019-04-11T04:44:38.186Z,13.70
2019-04-11T04:47:17.202Z,14.33
2019-04-11T04:49:38.873Z,14.00
2019-04-11T04:52:11.825Z,13.57
2019-04-11T04:54:41.103Z,15.00
2019-04-11T04:57:12.890Z,15.63
2019-04-11T04:59:42.316Z,14.10
2019-04-11T05:02:12.239Z,15.00
2019-04-11T05:04:40.817Z,14.50
2019-04-11T05:07:09.745Z,14.87
2019-04-11T05:09:40.520Z,15.07
2019-04-11T05:12:20.525Z,14.90
2019-04-11T05:15:03.666Z,14.57
2019-04-11T05:17:33.042Z,14.87
2019-04-11T05:20:04.941Z,14.27
2019-04-11T05:22:35.142Z,15.23
2019-04-11T05:25:05.428Z,14.83
2019-04-11T05:27:35.747Z,15.57
2019-04-11T05:30:05.271Z,14.90
2019-04-11T05:32:33.838Z,15.47
2019-04-11T05:35:02.917Z,15.47
2019-04-11T05:37:31.656Z,15.67
2019-04-11T05:40:00.879Z,15.10
2019-04-11T05:42:29.613Z,15.67
2019-04-11T05:44:59.119Z,16.40
2019-04-11T05:47:27.809Z,14.87
2019-04-11T05:50:15.946Z,15.13
2019-04-11T05:52:44.663Z,15.53
2019-04-11T05:55:15.501Z,15.23
2019-04-11T05:57:46.907Z,15.33
2019-04-11T06:00:50.013Z,15.93
2019-04-11T06:03:28.333Z,15.97
2019-04-11T06:06:24.646Z,14.87
2019-04-11T06:09:13.326Z,15.03
2019-04-11T06:12:09.663Z,15.33
2019-04-11T06:15:20.071Z,15.33
2019-04-11T06:17:58.599Z,15.67
2019-04-11T06:20:47.242Z,15.77
2019-04-11T06:23:49.747Z,15.70
2019-04-11T06:26:35.850Z,15.17
2019-04-11T06:29:23.240Z,15.70
2019-04-11T06:32:34.138Z,15.57
2019-04-11T06:35:21.959Z,15.43
2019-04-11T06:38:34.925Z,14.03
2019-04-11T06:41:32.666Z,14.57
2019-04-11T06:44:34.141Z,15.13
2019-04-11T06:47:40.914Z,15.27
2019-04-11T06:50:19.423Z,14.60
2019-04-11T06:53:04.797Z,14.10
2019-04-11T06:56:10.930Z,13.37
2019-04-11T06:58:56.439Z,13.63
2019-04-11T07:01:34.171Z,13.77
2019-04-11T07:04:20.102Z,15.03
2019-04-11T07:06:56.869Z,14.30
2019-04-11T07:10:09.502Z,14.93
2019-04-11T07:12:49.266Z,13.77
2019-04-11T07:15:32.137Z,14.13
2019-04-11T07:18:24.691Z,14.50
2019-04-11T07:21:14.962Z,14.53
2019-04-11T07:24:10.003Z,15.07
2019-04-11T07:26:49.969Z,14.47
2019-04-11T07:30:03.497Z,14.00
2019-04-11T07:32:40.566Z,14.07
2019-04-11T07:35:34.111Z,14.60
2019-04-11T07:38:16.334Z,13.97
2019-04-11T07:41:19.525Z,14.40
2019-04-11T07:43:56.489Z,14.37
2019-04-11T07:46:55.929Z,15.13
2019-04-11T07:49:35.293Z,14.63
2019-04-11T07:52:13.742Z,14.43
2019-04-11T07:54:47.854Z,14.43
2019-04-11T07:57:38.373Z,15.50
2019-04-11T08:00:48.933Z,14.70
2019-04-11T08:03:40.032Z,15.30
2019-04-11T08:06:34.892Z,13.97
2019-04-11T08:09:29.283Z,15.17
2019-04-11T08:12:17.426Z,15.87
2019-04-11T08:15:11.281Z,15.73
2019-04-11T08:17:48.035Z,15.13
2019-04-11T08:20:53.281Z,15.63
2019-04-11T08:23:40.148Z,15.90
2019-04-11T08:26:35.836Z,16.10
2019-04-11T08:29:15.556Z,15.97
2019-04-11T08:32:11.631Z,15.73
2019-04-11T08:34:56.580Z,16.80
2019-04-11T08:37:58.044Z,16.03
2019-04-11T08:40:42.923Z,17.10
2019-04-11T08:43:28.939Z,17.50
2019-04-11T08:46:30.915Z,17.23
2019-04-11T08:49:17.148Z,17.57
2019-04-11T08:52:00.039Z,18.20
2019-04-11T08:54:53.553Z,17.90
2019-04-11T08:57:36.485Z,17.73
2019-04-11T09:00:34.580Z,17.53
2019-04-11T09:04:06.814Z,18.57
2019-04-11T09:06:42.921Z,18.33
2019-04-11T09:09:49.714Z,18.57
2019-04-11T09:12:24.632Z,18.60
2019-04-11T09:15:23.045Z,18.17
2019-04-11T09:18:12.244Z,19.80
2019-04-11T09:21:20.265Z,20.17
2019-04-11T09:23:57.710Z,20.37
2019-04-11T09:27:04.942Z,19.93
2019-04-11T09:29:52.495Z,20.47
2019-04-11T09:33:04.710Z,21.13
2019-04-11T09:35:44.177Z,20.93
2019-04-11T09:38:22.524Z,20.13
2019-04-11T09:41:08.591Z,19.47
2019-04-11T09:43:52.624Z,20.30
2019-04-11T09:46:43.111Z,20.87
2019-04-11T09:49:31.065Z,20.37
2019-04-11T09:52:24.823Z,19.60
2019-04-11T09:55:21.314Z,23.27
2019-04-11T09:58:01.272Z,23.33
2019-04-11T10:01:01.703Z,22.60
2019-04-11T10:03:43.020Z,22.00
2019-04-11T10:06:41.290Z,21.77
2019-04-11T10:09:11.483Z,21.03
2019-04-11T10:12:15.803Z,22.07
2019-04-11T10:14:48.033Z,21.10
2019-04-11T10:17:59.555Z,22.00
2019-04-11T10:20:34.900Z,21.87
2019-04-11T10:23:32.538Z,23.20
2019-04-11T10:26:10.013Z,23.07
2019-04-11T10:29:12.778Z,22.90
2019-04-11T10:32:04.680Z,21.80
2019-04-11T10:35:28.133Z,21.17
2019-04-11T10:38:20.372Z,20.97
2019-04-11T10:41:08.504Z,21.27
2019-04-11T10:43:49.775Z,21.83
2019-04-11T10:46:49.425Z,22.13
2019-04-11T10:49:52.954Z,20.83
2019-04-11T10:52:39.405Z,20.80
2019-04-11T10:55:35.700Z,21.53
2019-04-11T10:58:21.573Z,21.77
2019-04-11T11:01:15.711Z,20.83
2019-04-11T11:04:13.659Z,20.37
2019-04-11T11:06:55.892Z,20.03
2019-04-11T11:09:44.249Z,20.80
2019-04-11T11:12:37.521Z,20.90
2019-04-11T11:15:19.703Z,20.20
2019-04-11T11:19:03.220Z,20.43
2019-04-11T11:21:17.544Z,19.57
2019-04-11T11:24:10.359Z,19.07
2019-04-11T11:26:51.992Z,20.53
2019-04-11T11:29:48.889Z,19.60
2019-04-11T11:32:41.173Z,19.47
2019-04-11T11:35:34.931Z,18.63
2019-04-11T11:38:22.217Z,18.43
2019-04-11T11:41:14.287Z,18.20
2019-04-11T11:43:49.736Z,18.00
2019-04-11T11:46:44.616Z,19.20
2019-04-11T11:49:42.080Z,18.23
2019-04-11T11:52:33.386Z,17.47
2019-04-11T11:55:06.178Z,16.67
2019-04-11T11:58:19.952Z,18.07
2019-04-11T12:01:04.529Z,19.37
2019-04-11T12:03:55.394Z,17.43
2019-04-11T12:06:29.308Z,18.10
2019-04-11T12:09:32.734Z,16.57
2019-04-11T12:12:16.237Z,18.90
2019-04-11T12:15:22.305Z,16.63
2019-04-11T12:18:28.739Z,18.10
2019-04-11T12:21:18.572Z,18.03
2019-04-11T12:24:29.573Z,16.83
2019-04-11T12:27:35.009Z,16.83
2019-04-11T12:30:37.385Z,16.57
2019-04-11T12:33:37.396Z,17.80
2019-04-11T12:36:09.850Z,17.50
2019-04-11T12:38:56.995Z,17.43
2019-04-11T12:41:40.125Z,18.03
2019-04-11T12:44:52.180Z,16.70
2019-04-11T12:47:39.235Z,17.20
2019-04-11T12:50:34.749Z,17.83
2019-04-11T12:53:17.484Z,17.97
2019-04-11T12:56:25.163Z,17.47
2019-04-11T12:59:09.078Z,18.40
2019-04-11T13:02:13.064Z,18.73
2019-04-11T13:04:49.054Z,17.57
2019-04-11T13:07:46.579Z,18.60
2019-04-11T13:10:36.978Z,19.30
2019-04-11T13:13:31.993Z,19.57
2019-04-11T13:16:13.688Z,19.20
2019-04-11T13:19:15.599Z,19.27
2019-04-11T13:21:58.740Z,19.13
2019-04-11T13:25:01.175Z,18.70
2019-04-11T13:27:40.634Z,19.37
2019-04-11T13:30:37.384Z,18.87
2019-04-11T13:33:16.793Z,19.57
2019-04-11T13:36:13.378Z,18.30
2019-04-11T13:38:52.929Z,18.87
2019-04-11T13:42:00.350Z,18.63
2019-04-11T13:44:41.345Z,18.60
2019-04-11T13:47:53.643Z,18.20
2019-04-11T13:50:34.234Z,19.27
2019-04-11T13:53:39.002Z,17.30
2019-04-11T13:56:14.865Z,17.27
2019-04-11T13:59:06.195Z,17.90
2019-04-11T14:01:41.310Z,18.30
2019-04-11T14:04:27.281Z,17.70
2019-04-11T14:07:04.848Z,16.57
2019-04-11T14:09:48.400Z,16.97
2019-04-11T14:12:26.321Z,16.40
2019-04-11T14:15:17.346Z,17.33
2019-04-11T14:18:27.834Z,17.77
2019-04-11T14:21:16.719Z,16.43
2019-04-11T14:24:05.955Z,17.47
2019-04-11T14:26:43.083Z,17.77
2019-04-11T14:30:00.035Z,18.40
2019-04-11T14:32:34.807Z,16.97
2019-04-11T14:35:29.583Z,18.80
2019-04-11T14:38:12.411Z,18.43
2019-04-11T14:41:18.886Z,18.07
2019-04-11T14:44:03.216Z,17.27
2019-04-11T14:46:56.103Z,17.20
2019-04-11T14:49:34.571Z,17.13
2019-04-11T14:52:34.683Z,16.50
2019-04-11T14:55:08.792Z,14.40
2019-04-11T14:58:07.159Z,14.67
2019-04-11T15:00:43.007Z,14.00
2019-04-11T15:03:37.161Z,15.63
2019-04-11T15:06:24.382Z,15.83
2019-04-11T15:09:34.664Z,13.40
2019-04-11T15:12:20.054Z,12.90
2019-04-11T15:15:26.606Z,13.40
2019-04-11T15:18:03.701Z,13.27
2019-04-11T15:21:14.736Z,14.07
2019-04-11T15:24:01.057Z,14.80
2019-04-11T15:26:52.564Z,14.00
2019-04-11T15:29:33.040Z,12.93
2019-04-11T15:32:42.114Z,12.80
2019-04-11T15:35:25.383Z,12.90
2019-04-11T15:38:23.949Z,15.07
2019-04-11T15:41:00.561Z,13.77
2019-04-11T15:43:58.542Z,11.67
2019-04-11T15:46:38.789Z,12.80
2019-04-11T15:49:32.655Z,13.20
2019-04-11T15:52:14.712Z,13.97
2019-04-11T15:54:51.675Z,14.67
2019-04-11T15:57:43.831Z,14.90
2019-04-11T16:00:50.447Z,15.07
2019-04-11T16:03:26.435Z,14.03
2019-04-11T16:06:18.294Z,13.50
2019-04-11T16:09:05.785Z,13.50
2019-04-11T16:12:07.116Z,14.37
2019-04-11T16:14:41.369Z,14.43
2019-04-11T16:17:37.926Z,14.40
2019-04-11T16:20:19.910Z,14.40
2019-04-11T16:23:15.845Z,14.60
2019-04-11T16:26:01.033Z,14.70
2019-04-11T16:28:52.923Z,14.23
2019-04-11T16:31:37.849Z,13.67
2019-04-11T16:34:29.018Z,13.00
2019-04-11T16:37:07.264Z,12.97
2019-04-11T16:40:01.386Z,13.43
2019-04-11T16:42:48.169Z,11.43
2019-04-11T16:45:30.227Z,12.27
2019-04-11T16:48:01.994Z,11.33
2019-04-11T16:50:39.627Z,11.30
2019-04-11T16:53:13.403Z,11.47
2019-04-11T16:55:48.161Z,11.17
2019-04-11T16:58:21.765Z,11.33
2019-04-11T17:01:02.321Z,11.50
2019-04-11T17:03:38.751Z,11.63
2019-04-11T17:06:25.935Z,11.57
2019-04-11T17:09:06.849Z,10.90
2019-04-11T17:11:41.994Z,11.37
2019-04-11T17:14:27.606Z,11.70
2019-04-11T17:17:00.945Z,11.33
2019-04-11T17:19:40.076Z,11.47
2019-04-11T17:22:18.853Z,11.33
2019-04-11T17:24:56.933Z,11.20
2019-04-11T17:27:32.181Z,11.90
2019-04-11T17:30:24.519Z,11.60
2019-04-11T17:33:14.069Z,11.30
2019-04-11T17:35:47.400Z,11.00
2019-04-11T17:38:27.553Z,11.97
2019-04-11T17:41:02.572Z,11.07
2019-04-11T17:43:36.660Z,11.50
2019-04-11T17:46:11.485Z,11.23
2019-04-11T17:48:46.499Z,10.53
2019-04-11T17:51:23.533Z,11.23
2019-04-11T17:54:01.465Z,10.60
2019-04-11T17:56:44.586Z,11.17
2019-04-11T17:59:27.923Z,10.63
2019-04-11T18:02:00.502Z,11.20
2019-04-11T18:04:34.667Z,10.33
2019-04-11T18:07:12.338Z,10.17
2019-04-11T18:09:50.683Z,10.60
2019-04-11T18:12:23.825Z,10.63
2019-04-11T18:15:03.807Z,11.33
2019-04-11T18:17:39.813Z,10.67
2019-04-11T18:20:18.894Z,10.93
2019-04-11T18:22:53.834Z,11.07
2019-04-11T18:25:29.429Z,10.43
2019-04-11T18:28:05.584Z,11.23
2019-04-11T18:30:41.621Z,11.23
2019-04-11T18:33:18.159Z,11.70
2019-04-11T18:35:56.376Z,11.80
2019-04-11T18:38:32.063Z,12.23
2019-04-11T18:41:05.406Z,12.40
2019-04-11T18:43:47.152Z,11.93
2019-04-11T18:46:28.232Z,13.13
2019-04-11T18:49:01.342Z,12.63
2019-04-11T18:51:43.547Z,13.13
2019-04-11T18:54:17.775Z,13.07
2019-04-11T18:56:59.148Z,12.90
2019-04-11T18:59:40.511Z,13.23
2019-04-11T19:02:18.837Z,12.67
2019-04-11T19:05:02.267Z,12.90
2019-04-11T19:07:47.188Z,13.30
2019-04-11T19:10:24.218Z,12.77
2019-04-11T19:13:02.311Z,13.60
2019-04-11T19:15:40.719Z,13.57
2019-04-11T19:18:17.223Z,14.43
2019-04-11T19:20:54.420Z,15.67
2019-04-11T19:23:31.969Z,16.53
2019-04-11T19:26:05.502Z,16.87
2019-04-11T19:28:41.681Z,16.23
2019-04-11T19:31:15.199Z,16.93
2019-04-11T19:33:48.018Z,16.00
2019-04-11T19:36:17.351Z,15.77
2019-04-11T19:38:45.884Z,15.93
2019-04-11T19:41:17.460Z,15.67
2019-04-11T19:43:48.731Z,15.93
2019-04-11T19:46:19.896Z,17.30
2019-04-11T19:48:47.611Z,17.87
2019-04-11T19:51:18.721Z,18.57
2019-04-11T19:53:48.382Z,18.20
2019-04-11T19:56:36.902Z,17.00
2019-04-11T19:59:06.480Z,17.30
2019-04-11T20:01:35.582Z,17.00
2019-04-11T20:04:04.093Z,18.17
2019-04-11T20:06:34.864Z,18.07
2019-04-11T20:09:05.989Z,17.80
2019-04-11T20:11:36.994Z,17.47
2019-04-11T20:14:07.888Z,17.33
2019-04-11T20:16:41.938Z,19.03
2019-04-11T20:19:08.762Z,19.43
2019-04-11T20:21:38.477Z,19.60
2019-04-11T20:24:09.573Z,18.90
2019-04-11T20:26:40.099Z,19.13
2019-04-11T20:29:09.604Z,19.20
2019-04-11T20:31:39.485Z,19.80
2019-04-11T20:34:08.251Z,19.33
2019-04-11T20:36:41.064Z,18.53
2019-04-11T20:39:07.971Z,19.10
2019-04-11T20:41:36.917Z,18.93
2019-04-11T20:44:06.049Z,19.57
2019-04-11T20:46:35.609Z,20.70
2019-04-11T20:49:04.183Z,20.07
2019-04-11T20:51:32.739Z,19.63
2019-04-11T20:54:01.501Z,20.07
2019-04-11T20:56:30.222Z,20.73
2019-04-11T20:58:59.609Z,20.80
2019-04-11T21:01:28.218Z,21.20
2019-04-11T21:04:00.064Z,20.93
2019-04-11T21:06:31.660Z,20.73
2019-04-11T21:08:58.382Z,21.77
2019-04-11T21:11:27.496Z,21.53
2019-04-11T21:13:56.026Z,21.17
2019-04-11T21:16:24.567Z,21.50
2019-04-11T21:18:54.549Z,21.77
2019-04-11T21:21:25.251Z,20.80
2019-04-11T21:23:54.080Z,22.83
2019-04-11T21:26:28.912Z,22.37
2019-04-11T21:28:58.956Z,21.90
2019-04-11T21:31:30.789Z,21.97
2019-04-11T21:33:58.866Z,21.53
2019-04-11T21:36:31.458Z,22.17
2019-04-11T21:38:57.947Z,21.83
2019-04-11T21:41:26.447Z,22.30
2019-04-11T21:43:54.894Z,21.87
2019-04-11T21:46:23.553Z,21.87
2019-04-11T21:48:52.117Z,22.37
2019-04-11T21:51:20.753Z,22.03
2019-04-11T21:53:49.431Z,22.20
2019-04-11T21:56:18.734Z,21.73
2019-04-11T21:58:50.219Z,21.90
2019-04-11T22:01:19.417Z,22.57
2019-04-11T22:03:51.914Z,21.37
2019-04-11T22:06:20.181Z,22.27
2019-04-11T22:08:48.701Z,22.70
2019-04-11T22:11:17.400Z,22.63
2019-04-11T22:13:46.131Z,21.10
2019-04-11T22:16:14.778Z,23.30
2019-04-11T22:18:44.343Z,22.43
2019-04-11T22:21:15.535Z,21.27
2019-04-11T22:23:48.883Z,22.67
2019-04-11T22:26:14.536Z,22.60
2019-04-11T22:28:43.133Z,22.23
2019-04-11T22:31:11.810Z,22.57
2019-04-11T22:34:02.735Z,22.60
2019-04-11T22:36:31.483Z,22.77
2019-04-11T22:39:01.079Z,23.33
2019-04-11T22:41:31.863Z,23.47
2019-04-11T22:44:00.410Z,22.93
2019-04-11T22:46:29.120Z,24.83
2019-04-11T22:48:57.917Z,23.00
2019-04-11T22:51:26.363Z,24.63
2019-04-11T22:54:00.235Z,23.23
2019-04-11T22:56:25.717Z,24.03
2019-04-11T22:58:54.746Z,24.00
2019-04-11T23:01:23.489Z,22.83
2019-04-11T23:03:58.141Z,23.53
2019-04-11T23:06:26.804Z,23.63
2019-04-11T23:08:55.758Z,24.43
2019-04-11T23:11:24.182Z,24.07
2019-04-11T23:13:52.729Z,23.30
2019-04-11T23:16:21.511Z,23.07
2019-04-11T23:18:50.475Z,23.93
2019-04-11T23:21:19.096Z,23.50
2019-04-11T23:23:47.784Z,24.10
2019-04-11T23:26:16.509Z,24.57
2019-04-11T23:28:46.713Z,24.27
2019-04-11T23:31:19.831Z,24.00
2019-04-11T23:33:51.793Z,23.63
2019-04-11T23:36:18.813Z,24.33
2019-04-11T23:38:48.800Z,25.07
2019-04-11T23:41:19.616Z,25.63
2019-04-11T23:43:50.018Z,24.27
2019-04-11T23:46:21.349Z,25.53
2019-04-11T23:48:48.983Z,25.83
2019-04-11T23:51:17.645Z,25.07
2019-04-11T23:53:46.336Z,26.00
2019-04-11T23:56:15.062Z,25.23
2019-04-11T23:58:43.971Z,26.57
